createdAt,value
2017-05-04T00:00:09.788Z,0
2017-05-04T00:01:20.834Z,0
2017-05-04T00:02:31.860Z,0
2017-05-04T00:03:42.948Z,0
2017-05-04T00:04:53.982Z,0
2017-05-04T00:06:05.219Z,0
2017-05-04T00:07:16.250Z,0
2017-05-04T00:08:27.279Z,0
2017-05-04T00:09:38.507Z,0
2017-05-04T00:10:49.529Z,0
2017-05-04T00:12:00.753Z,0
2017-05-04T00:13:11.777Z,0
2017-05-04T00:14:23.061Z,0
2017-05-04T00:15:34.101Z,0
2017-05-04T00:16:45.364Z,0
2017-05-04T00:17:56.395Z,0
2017-05-04T00:19:07.435Z,0
2017-05-04T00:20:18.526Z,0
2017-05-04T00:21:29.563Z,0
2017-05-04T00:22:40.592Z,0
2017-05-04T00:23:51.628Z,0
2017-05-04T00:25:02.660Z,0
2017-05-04T00:26:13.695Z,0
2017-05-04T00:27:24.715Z,0
2017-05-04T00:28:35.754Z,0
2017-05-04T00:29:46.778Z,0
2017-05-04T00:30:58.009Z,0
2017-05-04T00:32:09.043Z,0
2017-05-04T00:33:20.083Z,0
2017-05-04T00:34:31.122Z,0
2017-05-04T00:35:42.153Z,0
2017-05-04T00:36:53.244Z,0
2017-05-04T00:38:04.474Z,0
2017-05-04T00:39:15.509Z,0
2017-05-04T00:40:26.532Z,0
2017-05-04T00:41:37.564Z,0
2017-05-04T00:42:48.800Z,0
2017-05-04T00:43:59.842Z,0
2017-05-04T00:45:11.076Z,0
2017-05-04T00:46:22.107Z,0
2017-05-04T00:47:33.193Z,0
2017-05-04T00:48:44.231Z,0
2017-05-04T00:49:55.475Z,0
2017-05-04T00:51:06.519Z,0
2017-05-04T00:52:17.562Z,0
2017-05-04T00:53:28.607Z,0
2017-05-04T00:54:39.836Z,0
2017-05-04T00:55:50.869Z,0
2017-05-04T00:57:01.901Z,0
2017-05-04T00:58:12.991Z,0
2017-05-04T00:59:24.226Z,0
2017-05-04T01:00:35.266Z,0
2017-05-04T01:01:46.296Z,0
2017-05-04T01:02:57.517Z,0
2017-05-04T01:04:08.762Z,0
2017-05-04T01:05:19.793Z,0
2017-05-04T01:06:30.830Z,0
2017-05-04T01:07:42.081Z,0
2017-05-04T01:08:53.169Z,0
2017-05-04T01:10:04.411Z,0
2017-05-04T01:11:15.642Z,0
2017-05-04T01:12:26.717Z,0
2017-05-04T01:13:37.761Z,0
2017-05-04T01:14:48.800Z,0
2017-05-04T01:16:00.031Z,0
2017-05-04T01:17:11.262Z,0
2017-05-04T01:18:22.291Z,0
2017-05-04T01:19:33.378Z,0
2017-05-04T01:20:44.455Z,0
2017-05-04T01:21:55.494Z,0
2017-05-04T01:23:06.537Z,0
2017-05-04T01:24:17.762Z,0
2017-05-04T01:25:28.796Z,0
2017-05-04T01:26:39.849Z,0
2017-05-04T01:27:50.891Z,0
2017-05-04T01:29:01.930Z,0
2017-05-04T01:30:12.965Z,0
2017-05-04T01:31:23.992Z,0
2017-05-04T01:32:35.026Z,0
2017-05-04T01:33:46.262Z,0
2017-05-04T01:34:57.295Z,0
2017-05-04T01:36:08.383Z,0
2017-05-04T01:37:19.424Z,0
2017-05-04T01:38:30.468Z,0
2017-05-04T01:39:41.498Z,0
2017-05-04T01:40:52.522Z,0
2017-05-04T01:42:03.549Z,0
2017-05-04T01:43:14.587Z,0
2017-05-04T01:44:25.599Z,0
2017-05-04T01:45:36.644Z,0
2017-05-04T01:46:47.733Z,0
2017-05-04T01:47:58.765Z,0
2017-05-04T01:49:10.005Z,0
2017-05-04T01:50:21.243Z,0
2017-05-04T01:51:32.274Z,0
2017-05-04T01:52:43.312Z,0
2017-05-04T01:53:54.354Z,0
2017-05-04T01:55:05.390Z,0
2017-05-04T01:56:16.412Z,0
2017-05-04T01:57:27.499Z,0
2017-05-04T01:58:38.533Z,0
2017-05-04T01:59:49.568Z,0
2017-05-04T02:01:00.605Z,0
2017-05-04T02:02:11.645Z,0
2017-05-04T02:03:22.675Z,0
2017-05-04T02:04:33.703Z,0
2017-05-04T02:05:44.771Z,0
2017-05-04T02:06:56.013Z,0
2017-05-04T02:08:07.304Z,0
2017-05-04T02:09:18.331Z,0
2017-05-04T02:10:29.361Z,0
2017-05-04T02:11:40.395Z,0
2017-05-04T02:12:51.440Z,0
2017-05-04T02:14:02.477Z,0
2017-05-04T02:15:13.497Z,0
2017-05-04T02:16:24.530Z,0
2017-05-04T02:17:35.561Z,0
2017-05-04T02:18:46.846Z,0
2017-05-04T02:19:57.888Z,0
2017-05-04T02:21:08.926Z,0
2017-05-04T02:22:19.956Z,0
2017-05-04T02:23:30.989Z,0
2017-05-04T02:24:42.062Z,0
2017-05-04T02:25:53.096Z,0
2017-05-04T02:27:04.126Z,0
2017-05-04T02:28:15.160Z,0
2017-05-04T02:29:26.392Z,0
2017-05-04T02:30:37.432Z,0
2017-05-04T02:31:48.464Z,0
2017-05-04T02:32:59.701Z,0
2017-05-04T02:34:10.731Z,0
2017-05-04T02:35:21.776Z,0
2017-05-04T02:36:32.814Z,0
2017-05-04T02:37:43.848Z,0
2017-05-04T02:38:54.890Z,0
2017-05-04T02:40:05.981Z,0
2017-05-04T02:41:17.006Z,0
2017-05-04T02:42:28.030Z,0
2017-05-04T02:43:39.472Z,0
2017-05-04T02:44:50.508Z,0
2017-05-04T02:46:01.539Z,0
2017-05-04T02:47:12.579Z,0
2017-05-04T02:48:23.815Z,0
2017-05-04T02:49:34.848Z,0
2017-05-04T02:50:45.931Z,0
2017-05-04T02:51:56.961Z,0
2017-05-04T02:53:07.998Z,0
2017-05-04T02:54:19.038Z,0
2017-05-04T02:55:30.073Z,0
2017-05-04T02:56:41.101Z,0
2017-05-04T02:57:52.146Z,0
2017-05-04T02:59:03.184Z,0
2017-05-04T03:00:14.227Z,0
2017-05-04T03:01:25.331Z,0
2017-05-04T03:02:36.354Z,0
2017-05-04T03:03:47.392Z,0
2017-05-04T03:04:58.429Z,0
2017-05-04T03:06:09.462Z,0
2017-05-04T03:07:20.496Z,0
2017-05-04T03:08:31.725Z,0
2017-05-04T03:09:42.755Z,0
2017-05-04T03:10:53.793Z,0
2017-05-04T03:12:05.077Z,0
2017-05-04T03:13:16.108Z,0
2017-05-04T03:14:27.137Z,0
2017-05-04T03:15:38.380Z,0
2017-05-04T03:16:49.396Z,0
2017-05-04T03:18:00.431Z,0
2017-05-04T03:19:11.459Z,0
2017-05-04T03:20:22.496Z,0
2017-05-04T03:21:33.529Z,0
2017-05-04T03:22:44.620Z,0
2017-05-04T03:23:55.649Z,0
2017-05-04T03:25:06.691Z,0
2017-05-04T03:26:17.723Z,0
2017-05-04T03:27:28.757Z,0
2017-05-04T03:28:39.847Z,0
2017-05-04T03:29:50.868Z,0
2017-05-04T03:31:01.899Z,0
2017-05-04T03:32:12.931Z,0
2017-05-04T03:33:23.975Z,0
2017-05-04T03:34:35.009Z,0
2017-05-04T03:35:46.245Z,0
2017-05-04T03:36:57.295Z,0
2017-05-04T03:38:08.533Z,0
2017-05-04T03:39:19.566Z,0
2017-05-04T03:40:30.582Z,0
2017-05-04T03:41:41.609Z,0
2017-05-04T03:42:52.637Z,0
2017-05-04T03:44:03.670Z,0
2017-05-04T03:45:14.765Z,0
2017-05-04T03:46:25.798Z,0
2017-05-04T03:47:36.849Z,0
2017-05-04T03:48:48.304Z,0
2017-05-04T03:49:59.337Z,0
2017-05-04T03:51:10.355Z,0
2017-05-04T03:52:21.393Z,0
2017-05-04T03:53:32.427Z,0
2017-05-04T03:54:43.467Z,0
2017-05-04T03:55:54.958Z,0
2017-05-04T03:57:06.014Z,0
2017-05-04T03:58:17.070Z,0
2017-05-04T03:59:28.115Z,0
2017-05-04T04:00:39.137Z,5
2017-05-04T04:01:50.189Z,5
2017-05-04T04:03:01.244Z,5
2017-05-04T04:04:12.286Z,5
2017-05-04T04:05:23.321Z,10
2017-05-04T04:06:34.399Z,10
2017-05-04T04:07:45.447Z,10
2017-05-04T04:08:56.484Z,15
2017-05-04T04:10:07.517Z,15
2017-05-04T04:11:18.539Z,15
2017-05-04T04:12:29.577Z,15
2017-05-04T04:13:40.604Z,20
2017-05-04T04:14:51.851Z,20
2017-05-04T04:16:02.883Z,20
2017-05-04T04:17:13.970Z,20
2017-05-04T04:18:25.018Z,20
2017-05-04T04:19:36.060Z,20
2017-05-04T04:20:47.094Z,20
2017-05-04T04:21:58.538Z,25
2017-05-04T04:23:09.576Z,25
2017-05-04T04:24:20.813Z,30
2017-05-04T04:25:31.847Z,30
2017-05-04T04:26:42.873Z,35
2017-05-04T04:27:53.947Z,35
2017-05-04T04:29:04.977Z,35
2017-05-04T04:30:16.202Z,35
2017-05-04T04:31:27.263Z,35
2017-05-04T04:32:38.496Z,35
2017-05-04T04:33:49.528Z,35
2017-05-04T04:35:00.583Z,35
2017-05-04T04:36:11.603Z,30
2017-05-04T04:37:22.635Z,30
2017-05-04T04:38:33.669Z,30
2017-05-04T04:39:44.702Z,30
2017-05-04T04:40:55.731Z,35
2017-05-04T04:42:06.968Z,35
2017-05-04T04:43:18.192Z,35
2017-05-04T04:44:29.271Z,40
2017-05-04T04:45:40.295Z,45
2017-05-04T04:46:51.337Z,45
2017-05-04T04:48:02.367Z,50
2017-05-04T04:49:13.601Z,50
2017-05-04T04:50:24.659Z,50
2017-05-04T04:51:35.710Z,55
2017-05-04T04:52:46.957Z,55
2017-05-04T04:53:58.196Z,55
2017-05-04T04:55:09.686Z,55
2017-05-04T04:56:20.714Z,60
2017-05-04T04:57:31.786Z,60
2017-05-04T04:58:42.828Z,65
2017-05-04T04:59:54.267Z,75
2017-05-04T05:01:05.302Z,75
2017-05-04T05:02:16.335Z,75
2017-05-04T05:03:27.570Z,80
2017-05-04T05:04:38.600Z,80
2017-05-04T05:05:49.832Z,85
2017-05-04T05:07:00.872Z,85
2017-05-04T05:08:11.906Z,90
2017-05-04T05:09:22.938Z,90
2017-05-04T05:10:34.020Z,95
2017-05-04T05:11:45.061Z,95
2017-05-04T05:12:56.103Z,105
2017-05-04T05:14:07.333Z,105
2017-05-04T05:15:18.360Z,110
2017-05-04T05:16:29.389Z,110
2017-05-04T05:17:40.431Z,110
2017-05-04T05:18:51.657Z,115
2017-05-04T05:20:02.908Z,120
2017-05-04T05:21:13.980Z,130
2017-05-04T05:22:25.034Z,140
2017-05-04T05:23:36.072Z,150
2017-05-04T05:24:47.093Z,150
2017-05-04T05:25:58.123Z,160
2017-05-04T05:27:09.172Z,165
2017-05-04T05:28:20.399Z,175
2017-05-04T05:29:31.432Z,190
2017-05-04T05:30:42.675Z,195
2017-05-04T05:31:53.960Z,210
2017-05-04T05:33:04.988Z,230
2017-05-04T05:34:16.020Z,240
2017-05-04T05:35:27.046Z,245
2017-05-04T05:36:38.070Z,255
2017-05-04T05:37:49.098Z,265
2017-05-04T05:39:00.137Z,270
2017-05-04T05:40:11.166Z,285
2017-05-04T05:41:22.403Z,305
2017-05-04T05:42:33.441Z,320
2017-05-04T05:43:44.678Z,335
2017-05-04T05:44:55.720Z,390
2017-05-04T05:46:06.948Z,335
2017-05-04T05:47:18.190Z,355
2017-05-04T05:48:29.281Z,350
2017-05-04T05:49:40.312Z,340
2017-05-04T05:50:51.543Z,335
2017-05-04T05:52:02.563Z,330
2017-05-04T05:53:13.607Z,340
2017-05-04T05:54:25.046Z,330
2017-05-04T05:55:36.072Z,315
2017-05-04T05:56:47.106Z,310
2017-05-04T05:57:58.138Z,310
2017-05-04T05:59:09.224Z,310
2017-05-04T06:00:20.285Z,305
2017-05-04T06:01:31.310Z,290
2017-05-04T06:02:42.553Z,275
2017-05-04T06:03:53.809Z,255
2017-05-04T06:05:04.842Z,250
2017-05-04T06:06:15.870Z,245
2017-05-04T06:07:26.901Z,245
2017-05-04T06:08:37.944Z,245
2017-05-04T06:09:49.024Z,255
2017-05-04T06:11:00.062Z,235
2017-05-04T06:12:11.092Z,230
2017-05-04T06:13:22.128Z,230
2017-05-04T06:14:33.169Z,225
2017-05-04T06:15:44.399Z,220
2017-05-04T06:16:55.429Z,220
2017-05-04T06:18:06.455Z,225
2017-05-04T06:19:17.487Z,225
2017-05-04T06:20:28.563Z,225
2017-05-04T06:21:39.589Z,225
2017-05-04T06:22:50.617Z,225
2017-05-04T06:24:01.656Z,225
2017-05-04T06:25:12.911Z,235
2017-05-04T06:26:23.940Z,255
2017-05-04T06:27:35.172Z,245
2017-05-04T06:28:46.412Z,250
2017-05-04T06:29:57.444Z,255
2017-05-04T06:31:08.509Z,255
2017-05-04T06:32:19.543Z,255
2017-05-04T06:33:30.592Z,255
2017-05-04T06:34:42.039Z,250
2017-05-04T06:35:53.069Z,255
2017-05-04T06:37:04.100Z,260
2017-05-04T06:38:15.131Z,275
2017-05-04T06:39:26.171Z,390
2017-05-04T06:40:37.223Z,275
2017-05-04T06:41:48.312Z,280
2017-05-04T06:42:59.555Z,270
2017-05-04T06:44:10.596Z,260
2017-05-04T06:45:21.828Z,260
2017-05-04T06:46:32.893Z,260
2017-05-04T06:47:43.934Z,260
2017-05-04T06:48:54.980Z,260
2017-05-04T06:50:06.008Z,260
2017-05-04T06:51:17.247Z,255
2017-05-04T06:52:28.280Z,255
2017-05-04T06:53:39.304Z,255
2017-05-04T06:54:50.325Z,260
2017-05-04T06:56:01.350Z,260
2017-05-04T06:57:12.386Z,260
2017-05-04T06:58:23.469Z,270
2017-05-04T06:59:34.506Z,275
2017-05-04T07:00:45.534Z,295
2017-05-04T07:01:56.780Z,310
2017-05-04T07:03:07.816Z,325
2017-05-04T07:04:18.851Z,340
2017-05-04T07:05:29.889Z,355
2017-05-04T07:06:40.922Z,390
2017-05-04T07:07:51.944Z,430
2017-05-04T07:09:03.019Z,535
2017-05-04T07:10:14.253Z,635
2017-05-04T07:11:25.485Z,685
2017-05-04T07:12:36.517Z,615
2017-05-04T07:13:47.564Z,490
2017-05-04T07:14:58.616Z,405
2017-05-04T07:16:09.639Z,345
2017-05-04T07:17:20.886Z,310
2017-05-04T07:18:31.972Z,310
2017-05-04T07:19:43.070Z,320
2017-05-04T07:20:54.103Z,340
2017-05-04T07:22:05.136Z,350
2017-05-04T07:23:16.574Z,340
2017-05-04T07:24:27.798Z,340
2017-05-04T07:25:38.828Z,360
2017-05-04T07:26:49.868Z,390
2017-05-04T07:28:01.108Z,425
2017-05-04T07:29:12.364Z,460
2017-05-04T07:30:23.399Z,490
2017-05-04T07:31:34.632Z,515
2017-05-04T07:32:45.890Z,525
2017-05-04T07:33:56.925Z,505
2017-05-04T07:35:08.007Z,515
2017-05-04T07:36:19.034Z,515
2017-05-04T07:37:30.064Z,550
2017-05-04T07:38:41.309Z,565
2017-05-04T07:39:52.539Z,590
2017-05-04T07:41:04.021Z,615
2017-05-04T07:42:15.066Z,605
2017-05-04T07:43:26.089Z,560
2017-05-04T07:44:37.132Z,560
2017-05-04T07:45:48.167Z,620
2017-05-04T07:46:59.458Z,700
2017-05-04T07:48:10.493Z,700
2017-05-04T07:49:21.528Z,645
2017-05-04T07:50:32.763Z,625
2017-05-04T07:51:43.788Z,620
2017-05-04T07:52:55.035Z,665
2017-05-04T07:54:06.066Z,715
2017-05-04T07:55:17.105Z,745
2017-05-04T07:56:28.142Z,780
2017-05-04T07:57:39.376Z,830
2017-05-04T07:58:50.611Z,850
2017-05-04T08:00:01.668Z,835
2017-05-04T08:01:12.905Z,855
2017-05-04T08:02:23.941Z,910
2017-05-04T08:03:35.034Z,900
2017-05-04T08:04:46.070Z,875
2017-05-04T08:05:57.117Z,790
2017-05-04T08:07:08.153Z,750
2017-05-04T08:08:19.186Z,825
2017-05-04T08:09:30.433Z,1195
2017-05-04T08:10:41.493Z,1555
2017-05-04T08:11:52.717Z,2455
2017-05-04T08:13:04.163Z,2410
2017-05-04T08:14:15.446Z,2325
2017-05-04T08:15:26.471Z,1300
2017-05-04T08:16:37.543Z,1120
2017-05-04T08:17:48.592Z,1155
2017-05-04T08:18:59.639Z,2265
2017-05-04T08:20:10.681Z,2295
2017-05-04T08:21:21.923Z,2200
2017-05-04T08:22:32.966Z,2190
2017-05-04T08:23:44.015Z,1930
2017-05-04T08:24:55.116Z,1935
2017-05-04T08:26:06.167Z,2235
2017-05-04T08:27:17.206Z,2225
2017-05-04T08:28:28.474Z,2375
2017-05-04T08:29:39.523Z,2105
2017-05-04T08:30:50.570Z,1240
2017-05-04T08:32:01.613Z,1850
2017-05-04T08:33:12.866Z,1120
2017-05-04T08:34:23.913Z,1080
2017-05-04T08:35:34.999Z,565
2017-05-04T08:36:46.047Z,420
2017-05-04T08:37:57.100Z,410
2017-05-04T08:39:08.137Z,465
2017-05-04T08:40:19.375Z,500
2017-05-04T08:41:30.615Z,695
2017-05-04T08:42:41.664Z,600
2017-05-04T08:43:52.716Z,580
2017-05-04T08:45:03.768Z,645
2017-05-04T08:46:14.859Z,1170
2017-05-04T08:47:26.100Z,1330
2017-05-04T08:48:37.142Z,800
2017-05-04T08:49:48.180Z,1085
2017-05-04T08:50:59.225Z,1135
2017-05-04T08:52:10.265Z,975
2017-05-04T08:53:21.308Z,970
2017-05-04T08:54:32.343Z,730
2017-05-04T08:55:43.380Z,700
2017-05-04T08:56:54.417Z,715
2017-05-04T08:58:05.468Z,695
2017-05-04T08:59:16.516Z,655
2017-05-04T09:00:27.545Z,660
2017-05-04T09:01:38.591Z,750
2017-05-04T09:02:49.670Z,1020
2017-05-04T09:04:00.695Z,1000
2017-05-04T09:05:11.746Z,1080
2017-05-04T09:06:22.815Z,1125
2017-05-04T09:07:33.861Z,955
2017-05-04T09:08:44.918Z,860
2017-05-04T09:09:55.955Z,1080
2017-05-04T09:11:07.199Z,770
2017-05-04T09:12:18.439Z,775
2017-05-04T09:13:29.533Z,885
2017-05-04T09:14:40.564Z,930
2017-05-04T09:15:51.616Z,1190
2017-05-04T09:17:02.660Z,1760
2017-05-04T09:18:13.897Z,1795
2017-05-04T09:19:25.128Z,1015
2017-05-04T09:20:36.372Z,1015
2017-05-04T09:21:47.428Z,820
2017-05-04T09:22:58.673Z,760
2017-05-04T09:24:09.969Z,730
2017-05-04T09:25:21.008Z,755
2017-05-04T09:26:32.044Z,765
2017-05-04T09:27:43.080Z,780
2017-05-04T09:28:54.118Z,1125
2017-05-04T09:30:05.149Z,805
2017-05-04T09:31:16.203Z,820
2017-05-04T09:32:27.248Z,755
2017-05-04T09:33:38.288Z,685
2017-05-04T09:34:49.576Z,620
2017-05-04T09:36:00.817Z,585
2017-05-04T09:37:11.858Z,560
2017-05-04T09:38:22.888Z,570
2017-05-04T09:39:34.130Z,575
2017-05-04T09:40:45.159Z,670
2017-05-04T09:41:56.413Z,770
2017-05-04T09:43:07.474Z,840
2017-05-04T09:44:18.518Z,950
2017-05-04T09:45:29.752Z,955
2017-05-04T09:46:40.798Z,1000
2017-05-04T09:47:51.843Z,840
2017-05-04T09:49:02.877Z,1100
2017-05-04T09:50:14.171Z,1240
2017-05-04T09:51:25.208Z,735
2017-05-04T09:52:36.238Z,685
2017-05-04T09:53:47.281Z,1065
2017-05-04T09:54:58.320Z,735
2017-05-04T09:56:09.371Z,1335
2017-05-04T09:57:20.416Z,965
2017-05-04T09:58:31.453Z,1580
2017-05-04T09:59:42.501Z,715
2017-05-04T10:00:53.605Z,750
2017-05-04T10:02:04.643Z,805
2017-05-04T10:03:15.875Z,815
2017-05-04T10:04:27.118Z,710
2017-05-04T10:05:38.160Z,635
2017-05-04T10:06:49.393Z,1300
2017-05-04T10:08:00.441Z,550
2017-05-04T10:09:11.677Z,770
2017-05-04T10:10:22.714Z,575
2017-05-04T10:11:34.006Z,585
2017-05-04T10:12:45.034Z,605
2017-05-04T10:13:56.071Z,545
2017-05-04T10:15:07.132Z,595
2017-05-04T10:16:18.174Z,650
2017-05-04T10:17:29.224Z,620
2017-05-04T10:18:40.253Z,550
2017-05-04T10:19:51.288Z,510
2017-05-04T10:21:02.337Z,535
2017-05-04T10:22:13.416Z,535
2017-05-04T10:23:24.453Z,510
2017-05-04T10:24:35.492Z,530
2017-05-04T10:25:46.527Z,575
2017-05-04T10:26:57.573Z,605
2017-05-04T10:28:08.617Z,590
2017-05-04T10:29:19.672Z,570
2017-05-04T10:30:30.708Z,495
2017-05-04T10:31:41.755Z,495
2017-05-04T10:32:52.836Z,460
2017-05-04T10:34:03.871Z,465
2017-05-04T10:35:14.887Z,485
2017-05-04T10:36:25.918Z,495
2017-05-04T10:37:37.371Z,495
2017-05-04T10:38:48.607Z,480
2017-05-04T10:39:59.861Z,440
2017-05-04T10:41:10.930Z,395
2017-05-04T10:42:21.974Z,380
2017-05-04T10:43:33.064Z,405
2017-05-04T10:44:44.091Z,455
2017-05-04T10:45:55.137Z,470
2017-05-04T10:47:06.202Z,455
2017-05-04T10:48:17.235Z,445
2017-05-04T10:49:28.470Z,480
2017-05-04T10:50:39.509Z,515
2017-05-04T10:51:50.551Z,480
2017-05-04T10:53:01.613Z,450
2017-05-04T10:54:12.699Z,535
2017-05-04T10:55:23.737Z,450
2017-05-04T10:56:34.766Z,425
2017-05-04T10:57:46.001Z,425
2017-05-04T10:58:57.041Z,420
2017-05-04T11:00:08.078Z,450
2017-05-04T11:01:19.334Z,480
2017-05-04T11:02:30.575Z,500
2017-05-04T11:03:41.605Z,525
2017-05-04T11:04:52.648Z,560
2017-05-04T11:06:03.888Z,565
2017-05-04T11:07:14.918Z,510
2017-05-04T11:08:26.160Z,460
2017-05-04T11:09:37.192Z,415
2017-05-04T11:10:48.283Z,405
2017-05-04T11:11:59.308Z,425
2017-05-04T11:13:10.336Z,435
2017-05-04T11:14:21.368Z,420
2017-05-04T11:15:32.617Z,405
2017-05-04T11:16:43.846Z,400
2017-05-04T11:17:55.091Z,380
2017-05-04T11:19:06.319Z,355
2017-05-04T11:20:17.356Z,330
2017-05-04T11:21:28.448Z,320
2017-05-04T11:22:39.692Z,295
2017-05-04T11:23:50.736Z,280
2017-05-04T11:25:01.968Z,265
2017-05-04T11:26:13.208Z,270
2017-05-04T11:27:24.238Z,305
2017-05-04T11:28:35.272Z,375
2017-05-04T11:29:46.317Z,370
2017-05-04T11:30:57.348Z,335
2017-05-04T11:32:08.427Z,335
2017-05-04T11:33:19.470Z,280
2017-05-04T11:34:30.702Z,250
2017-05-04T11:35:41.939Z,240
2017-05-04T11:36:52.972Z,235
2017-05-04T11:38:04.004Z,225
2017-05-04T11:39:15.038Z,215
2017-05-04T11:40:26.071Z,215
2017-05-04T11:41:37.312Z,220
2017-05-04T11:42:48.384Z,220
2017-05-04T11:43:59.619Z,215
2017-05-04T11:45:10.654Z,220
2017-05-04T11:46:21.682Z,200
2017-05-04T11:47:32.728Z,185
2017-05-04T11:48:43.770Z,190
2017-05-04T11:49:54.796Z,190
2017-05-04T11:51:05.842Z,190
2017-05-04T11:52:17.081Z,185
2017-05-04T11:53:28.163Z,180
2017-05-04T11:54:39.397Z,175
2017-05-04T11:55:50.423Z,170
2017-05-04T11:57:01.463Z,175
2017-05-04T11:58:12.709Z,170
2017-05-04T11:59:23.956Z,175
2017-05-04T12:00:34.992Z,180
2017-05-04T12:01:46.024Z,185
2017-05-04T12:02:57.066Z,190
2017-05-04T12:04:08.295Z,185
2017-05-04T12:05:19.323Z,185
2017-05-04T12:06:30.559Z,190
2017-05-04T12:07:41.579Z,205
2017-05-04T12:08:52.611Z,225
2017-05-04T12:10:03.889Z,230
2017-05-04T12:11:14.921Z,220
2017-05-04T12:12:25.955Z,200
2017-05-04T12:13:36.993Z,195
2017-05-04T12:14:48.028Z,190
2017-05-04T12:15:59.051Z,185
2017-05-04T12:17:10.294Z,185
2017-05-04T12:18:21.318Z,185
2017-05-04T12:19:32.349Z,205
2017-05-04T12:20:43.589Z,235
2017-05-04T12:21:54.628Z,260
2017-05-04T12:23:05.660Z,260
2017-05-04T12:24:16.694Z,235
2017-05-04T12:25:27.768Z,215
2017-05-04T12:26:38.803Z,230
2017-05-04T12:27:50.046Z,250
2017-05-04T12:29:01.083Z,240
2017-05-04T12:30:12.116Z,235
2017-05-04T12:31:23.351Z,225
2017-05-04T12:32:34.390Z,215
2017-05-04T12:33:45.418Z,215
2017-05-04T12:34:56.449Z,235
2017-05-04T12:36:07.532Z,275
2017-05-04T12:37:18.576Z,290
2017-05-04T12:38:29.611Z,280
2017-05-04T12:39:40.642Z,275
2017-05-04T12:40:51.683Z,275
2017-05-04T12:42:02.708Z,260
2017-05-04T12:43:13.739Z,250
2017-05-04T12:44:24.771Z,225
2017-05-04T12:45:35.805Z,225
2017-05-04T12:46:46.855Z,240
2017-05-04T12:47:57.902Z,240
2017-05-04T12:49:08.956Z,245
2017-05-04T12:50:20.001Z,245
2017-05-04T12:51:31.035Z,215
2017-05-04T12:52:42.129Z,205
2017-05-04T12:53:53.168Z,205
2017-05-04T12:55:04.204Z,210
2017-05-04T12:56:15.442Z,220
2017-05-04T12:57:26.529Z,240
2017-05-04T12:58:37.559Z,265
2017-05-04T12:59:48.598Z,250
2017-05-04T13:00:59.833Z,245
2017-05-04T13:02:11.076Z,255
2017-05-04T13:03:22.098Z,235
2017-05-04T13:04:33.342Z,225
2017-05-04T13:05:44.371Z,235
2017-05-04T13:06:55.407Z,280
2017-05-04T13:08:06.430Z,305
2017-05-04T13:09:17.665Z,285
2017-05-04T13:10:28.705Z,265
2017-05-04T13:11:39.743Z,270
2017-05-04T13:12:50.772Z,270
2017-05-04T13:14:01.853Z,240
2017-05-04T13:15:12.873Z,210
2017-05-04T13:16:23.904Z,225
2017-05-04T13:17:34.944Z,240
2017-05-04T13:18:46.182Z,255
2017-05-04T13:19:57.207Z,250
2017-05-04T13:21:08.232Z,245
2017-05-04T13:22:19.271Z,270
2017-05-04T13:23:30.305Z,260
2017-05-04T13:24:41.592Z,240
2017-05-04T13:25:52.815Z,240
2017-05-04T13:27:03.846Z,250
2017-05-04T13:28:14.883Z,290
2017-05-04T13:29:25.923Z,305
2017-05-04T13:30:36.966Z,335
2017-05-04T13:31:48.025Z,350
2017-05-04T13:32:59.266Z,345
2017-05-04T13:34:10.298Z,305
2017-05-04T13:35:21.592Z,255
2017-05-04T13:36:32.625Z,205
2017-05-04T13:37:43.852Z,195
2017-05-04T13:38:54.889Z,185
2017-05-04T13:40:05.920Z,150
2017-05-04T13:41:16.956Z,140
2017-05-04T13:42:28.193Z,135
2017-05-04T13:43:39.436Z,140
2017-05-04T13:44:50.469Z,155
2017-05-04T13:46:01.558Z,175
2017-05-04T13:47:12.587Z,195
2017-05-04T13:48:23.846Z,220
2017-05-04T13:49:35.080Z,220
2017-05-04T13:50:46.118Z,190
2017-05-04T13:51:57.156Z,160
2017-05-04T13:53:08.193Z,155
2017-05-04T13:54:19.427Z,155
2017-05-04T13:55:30.455Z,160
2017-05-04T13:56:41.578Z,160
2017-05-04T13:57:52.611Z,165
2017-05-04T13:59:03.861Z,160
2017-05-04T14:00:14.896Z,160
2017-05-04T14:01:25.951Z,155
2017-05-04T14:02:37.032Z,155
2017-05-04T14:03:48.065Z,155
2017-05-04T14:04:59.296Z,165
2017-05-04T14:06:10.333Z,165
2017-05-04T14:07:21.774Z,155
2017-05-04T14:08:33.015Z,150
2017-05-04T14:09:44.044Z,180
2017-05-04T14:10:55.281Z,210
2017-05-04T14:12:06.303Z,225
2017-05-04T14:13:17.384Z,205
2017-05-04T14:14:28.411Z,205
2017-05-04T14:15:39.447Z,210
2017-05-04T14:16:50.480Z,235
2017-05-04T14:18:01.517Z,250
2017-05-04T14:19:12.551Z,270
2017-05-04T14:20:23.580Z,280
2017-05-04T14:21:34.611Z,255
2017-05-04T14:22:45.646Z,215
2017-05-04T14:23:56.736Z,220
2017-05-04T14:25:07.765Z,230
2017-05-04T14:26:18.794Z,245
2017-05-04T14:27:29.830Z,255
2017-05-04T14:28:40.865Z,250
2017-05-04T14:29:52.101Z,270
2017-05-04T14:31:03.143Z,305
2017-05-04T14:32:14.193Z,330
2017-05-04T14:33:25.220Z,275
2017-05-04T14:34:36.303Z,240
2017-05-04T14:35:47.330Z,240
2017-05-04T14:36:58.360Z,245
2017-05-04T14:38:09.389Z,260
2017-05-04T14:39:20.426Z,335
2017-05-04T14:40:31.457Z,300
2017-05-04T14:41:42.514Z,230
2017-05-04T14:42:53.540Z,200
2017-05-04T14:44:04.576Z,200
2017-05-04T14:45:15.600Z,180
2017-05-04T14:46:26.850Z,185
2017-05-04T14:47:37.882Z,175
2017-05-04T14:48:48.918Z,160
2017-05-04T14:49:59.942Z,160
2017-05-04T14:51:10.973Z,165
2017-05-04T14:52:22.217Z,150
2017-05-04T14:53:33.240Z,140
2017-05-04T14:54:44.271Z,145
2017-05-04T14:55:55.559Z,140
2017-05-04T14:57:06.796Z,125
2017-05-04T14:58:17.829Z,120
2017-05-04T14:59:28.862Z,115
2017-05-04T15:00:40.094Z,110
2017-05-04T15:01:51.169Z,110
2017-05-04T15:03:02.193Z,110
2017-05-04T15:04:13.229Z,110
2017-05-04T15:05:24.256Z,115
2017-05-04T15:06:35.281Z,120
2017-05-04T15:07:46.307Z,125
2017-05-04T15:08:57.354Z,120
2017-05-04T15:10:08.389Z,105
2017-05-04T15:11:19.426Z,95
2017-05-04T15:12:30.455Z,95
2017-05-04T15:13:41.489Z,95
2017-05-04T15:14:52.517Z,100
2017-05-04T15:16:03.559Z,105
2017-05-04T15:17:14.590Z,100
2017-05-04T15:18:25.675Z,90
2017-05-04T15:19:36.713Z,90
2017-05-04T15:20:47.749Z,80
2017-05-04T15:21:58.788Z,85
2017-05-04T15:23:09.821Z,85
2017-05-04T15:24:20.865Z,90
2017-05-04T15:25:32.098Z,85
2017-05-04T15:26:43.339Z,90
2017-05-04T15:27:54.374Z,90
2017-05-04T15:29:05.654Z,85
2017-05-04T15:30:16.689Z,95
2017-05-04T15:31:27.921Z,100
2017-05-04T15:32:38.959Z,100
2017-05-04T15:33:49.992Z,100
2017-05-04T15:35:01.232Z,100
2017-05-04T15:36:12.267Z,105
2017-05-04T15:37:23.309Z,105
2017-05-04T15:38:34.339Z,115
2017-05-04T15:39:45.430Z,130
2017-05-04T15:40:56.458Z,135
2017-05-04T15:42:07.690Z,130
2017-05-04T15:43:18.727Z,125
2017-05-04T15:44:29.767Z,120
2017-05-04T15:45:40.787Z,110
2017-05-04T15:46:52.014Z,110
2017-05-04T15:48:03.058Z,110
2017-05-04T15:49:14.290Z,115
2017-05-04T15:50:25.367Z,105
2017-05-04T15:51:36.382Z,85
2017-05-04T15:52:47.618Z,80
2017-05-04T15:53:58.649Z,90
2017-05-04T15:55:09.686Z,90
2017-05-04T15:56:20.706Z,85
2017-05-04T15:57:31.947Z,75
2017-05-04T15:58:42.984Z,75
2017-05-04T15:59:54.019Z,90
2017-05-04T16:01:05.106Z,90
2017-05-04T16:02:16.126Z,75
2017-05-04T16:03:27.171Z,75
2017-05-04T16:04:38.397Z,85
2017-05-04T16:05:49.617Z,85
2017-05-04T16:07:00.656Z,75
2017-05-04T16:08:11.698Z,75
2017-05-04T16:09:22.933Z,65
2017-05-04T16:10:33.966Z,70
2017-05-04T16:11:44.995Z,65
2017-05-04T16:12:56.223Z,65
2017-05-04T16:14:07.249Z,65
2017-05-04T16:15:18.286Z,75
2017-05-04T16:16:29.316Z,85
2017-05-04T16:17:40.428Z,80
2017-05-04T16:18:51.463Z,85
2017-05-04T16:20:02.497Z,80
2017-05-04T16:21:13.531Z,75
2017-05-04T16:22:24.571Z,70
2017-05-04T16:23:35.633Z,60
2017-05-04T16:24:46.667Z,60
2017-05-04T16:25:57.899Z,60
2017-05-04T16:27:08.933Z,60
2017-05-04T16:28:20.008Z,70
2017-05-04T16:29:31.040Z,70
2017-05-04T16:30:42.073Z,65
2017-05-04T16:31:53.098Z,65
2017-05-04T16:33:04.127Z,65
2017-05-04T16:34:15.164Z,65
2017-05-04T16:35:26.200Z,60
2017-05-04T16:36:37.223Z,50
2017-05-04T16:37:48.245Z,45